Empire, Nevada
Current Conditions -  °F | °C
As of 6:53 PM on Tuesday 25 Nov 2014 (Local Time) from KLOL Reporting Station
Clear Clear  
Wind Chill:   Ceiling: Unl
Heat Index:   Visibility: 10mi
Dew Point: -7°   Wind: 6mph
Humidity: 41%   Direction: 70°ENE
Pressure: 30.43"   Gusts: NA
Location:  40.58°N, 119.34°W
Report Text: KLOL 260253Z AUTO 07005KT 10SM CLR 06/M07 A3043 RMK AO2 SLP335 T00561067 53003
Loading
Personal Weather Stations






























Interactive Weather Map New forecast layout! Learn more

10-Day Weather Forecast

Advertisements
Track Severe Weather on mobile